Ark, Virginia
Current Conditions -  °F | °C
As of 4:55 AM on Sunday 23 Nov 2014 (Local Time) from KFYJ Reporting Station
Clear Clear  
Wind Chill: 38°   Ceiling: Unl
Heat Index: 38°   Visibility: 10mi
Dew Point: 25°   Wind: 0mph
Humidity: 59%   Direction: NA
Pressure: 30.29"   Gusts: NA
Location:  37.44°N, 76.58°W
Report Text: KFYJ 230955Z AUTO 00000KT 10SM CLR 04/M04 A3029 RMK AO2 T00361038
Loading
Personal Weather Stations






























Interactive Weather Map New forecast layout! Learn more

10-Day Weather Forecast

Advertisements
Track Severe Weather on mobile